Time;durP1;ratioP1;P1;durP2;ratioP2;P2;SDS_P1;SDS_P2;PMS_P1;PMS_P2;Temp;Humidity;BMP_temperature;BMP_pressure;BME280_temperature;BME280_humidity;BME280_pressure;Samples;Min_cycle;Max_cycle;Signal;HPM_P1;HPM_P2
2022/09/18 00:01:36;;;;;;;7.20;2.13;;;11.60;80.60;;;;;;4990060;28;20035;-75
2022/09/18 00:04:03;;;;;;;6.07;2.25;;;11.60;80.80;;;;;;4988488;28;20093;-76
2022/09/18 00:06:31;;;;;;;8.63;2.38;;;11.60;80.60;;;;;;4989880;28;20061;-76
2022/09/18 00:08:59;;;;;;;10.43;2.90;;;11.60;80.70;;;;;;4987981;28;20022;-76
2022/09/18 00:11:27;;;;;;;7.03;2.90;;;11.60;80.80;;;;;;4992537;28;20022;-77
2022/09/18 00:13:53;;;;;;;9.73;2.70;;;11.60;80.60;;;;;;4996781;28;20034;-77
2022/09/18 00:16:20;;;;;;;8.02;2.72;;;11.50;80.60;;;;;;4992871;28;20039;-75
2022/09/18 00:18:46;;;;;;;7.80;2.70;;;11.50;80.50;;;;;;4988001;28;20038;-74
2022/09/18 00:21:15;;;;;;;7.22;2.65;;;11.50;80.50;;;;;;4989355;28;20037;-76
2022/09/18 00:23:41;;;;;;;6.85;2.45;;;11.50;80.50;;;;;;4987216;28;20049;-76
2022/09/18 00:26:10;;;;;;;8.60;2.65;;;11.50;80.40;;;;;;4986439;28;20042;-75
2022/09/18 00:28:35;;;;;;;6.30;3.33;;;11.40;80.50;;;;;;4986202;28;20062;-76
2022/09/18 00:31:07;;;;;;;9.30;2.60;;;11.40;80.30;;;;;;4986368;28;20124;-75
2022/09/18 00:33:33;;;;;;;8.45;2.35;;;11.40;80.20;;;;;;4984784;28;20065;-77
2022/09/18 00:36:00;;;;;;;8.10;2.25;;;11.40;80.00;;;;;;4983390;28;20056;-75
2022/09/18 00:38:31;;;;;;;7.38;2.47;;;11.30;80.10;;;;;;4987546;28;21517;-75
2022/09/18 00:41:00;;;;;;;5.40;2.20;;;11.30;80.10;;;;;;4982993;28;20026;-75
2022/09/18 00:43:29;;;;;;;7.00;2.40;;;11.30;79.90;;;;;;4984673;28;20141;-76
2022/09/18 00:45:59;;;;;;;7.03;2.22;;;11.30;80.10;;;;;;4985141;28;20046;-76
2022/09/18 00:48:36;;;;;;;5.15;2.28;;;11.30;80.10;;;;;;4982065;28;20525;-76
2022/09/18 00:51:03;;;;;;;5.35;2.22;;;11.30;80.00;;;;;;4986263;28;20485;-75
2022/09/18 00:53:29;;;;;;;7.00;2.20;;;11.20;79.80;;;;;;4986036;28;20035;-75
2022/09/18 00:55:57;;;;;;;6.22;2.47;;;11.20;79.90;;;;;;4984152;28;20083;-77
2022/09/18 00:58:23;;;;;;;8.18;2.92;;;11.20;80.00;;;;;;4984285;28;20478;-76
2022/09/18 01:00:49;;;;;;;4.47;2.30;;;11.10;80.20;;;;;;4986262;28;20065;-75
2022/09/18 01:03:14;;;;;;;5.00;2.60;;;11.10;80.20;;;;;;4987687;28;20458;-76
2022/09/18 01:05:43;;;;;;;6.43;2.22;;;11.10;80.40;;;;;;4987340;28;20375;-76
2022/09/18 01:08:23;;;;;;;7.70;2.50;;;11.10;80.60;;;;;;4983903;28;20034;-76
2022/09/18 01:11:08;;;;;;;6.10;2.45;;;11.10;80.50;;;;;;4984429;28;20084;-75
2022/09/18 01:13:45;;;;;;;5.13;2.00;;;11.00;80.30;;;;;;4985756;28;20106;-75
2022/09/18 01:16:35;;;;;;;5.35;2.20;;;11.00;80.40;;;;;;4989513;28;20046;-77
2022/09/18 01:19:09;;;;;;;6.35;2.47;;;11.00;80.60;;;;;;4999730;28;20042;-76
2022/09/18 01:22:13;;;;;;;4.82;2.60;;;11.00;80.80;;;;;;4998416;28;20034;-76
2022/09/18 01:24:42;;;;;;;5.05;2.33;;;11.00;80.90;;;;;;4983816;28;20116;-75
2022/09/18 01:27:15;;;;;;;7.80;2.40;;;11.00;80.90;;;;;;4984658;28;20290;-75
2022/09/18 01:30:06;;;;;;;6.00;2.25;;;11.00;81.10;;;;;;4981602;28;20034;-76
2022/09/18 01:32:44;;;;;;;7.63;2.80;;;11.00;81.20;;;;;;4984694;28;20378;-75
2022/09/18 01:35:23;;;;;;;9.15;2.33;;;10.90;81.30;;;;;;4983797;28;20057;-77
2022/09/18 01:37:57;;;;;;;9.07;2.40;;;10.90;81.30;;;;;;4986358;28;20027;-76
2022/09/18 01:40:33;;;;;;;6.55;2.60;;;10.90;81.10;;;;;;4979005;28;20476;-76
2022/09/18 01:43:02;;;;;;;7.78;2.72;;;11.00;81.10;;;;;;4984126;28;20094;-76
2022/09/18 01:45:33;;;;;;;4.70;2.47;;;10.90;81.10;;;;;;4985925;28;20430;-76
2022/09/18 01:48:05;;;;;;;5.95;2.60;;;10.90;81.10;;;;;;4987001;28;20042;-76
2022/09/18 01:50:38;;;;;;;9.02;3.75;;;10.90;81.50;;;;;;4980316;28;20050;-75
2022/09/18 01:53:26;;;;;;;8.95;4.75;;;10.90;81.70;;;;;;4984535;28;20649;-76
2022/09/18 01:56:00;;;;;;;10.23;5.57;;;10.90;81.70;;;;;;4966717;28;20035;-76
2022/09/18 01:58:27;;;;;;;9.30;5.25;;;10.80;81.80;;;;;;4964560;28;20033;-77
2022/09/18 02:00:57;;;;;;;10.52;5.57;;;10.80;81.90;;;;;;4970829;28;20125;-76
2022/09/18 02:03:30;;;;;;;8.30;6.00;;;10.80;82.00;;;;;;4965676;28;20110;-76
2022/09/18 02:06:05;;;;;;;8.57;4.85;;;10.80;82.30;;;;;;4964137;28;20082;-76
2022/09/18 02:08:38;;;;;;;9.45;4.90;;;10.90;82.40;;;;;;4975664;28;20130;-76
2022/09/18 02:11:08;;;;;;;12.75;5.85;;;10.80;82.50;;;;;;4985073;28;20092;-76
2022/09/18 02:13:42;;;;;;;8.48;4.40;;;10.80;82.50;;;;;;4977577;28;20154;-76
2022/09/18 02:16:13;;;;;;;8.70;4.82;;;10.90;82.40;;;;;;4990675;28;20181;-76
2022/09/18 02:18:43;;;;;;;7.50;3.65;;;10.90;82.60;;;;;;4986042;28;20053;-76
2022/09/18 02:21:12;;;;;;;7.97;4.35;;;10.80;82.80;;;;;;4985485;28;20376;-77
2022/09/18 02:23:40;;;;;;;9.43;5.00;;;10.80;83.10;;;;;;4978780;28;20038;-76
2022/09/18 02:26:08;;;;;;;9.93;4.38;;;10.80;83.40;;;;;;4981981;28;20050;-76
2022/09/18 02:28:35;;;;;;;8.20;4.15;;;10.70;83.40;;;;;;4983631;28;20046;-76
2022/09/18 02:31:01;;;;;;;9.02;5.05;;;10.70;83.60;;;;;;4981656;28;20034;-76
2022/09/18 02:33:33;;;;;;;7.45;4.43;;;10.60;83.90;;;;;;4985489;28;20068;-76
2022/09/18 02:36:06;;;;;;;8.20;4.35;;;10.60;84.10;;;;;;4985742;28;20398;-76
2022/09/18 02:38:51;;;;;;;8.13;4.67;;;10.60;84.20;;;;;;4979087;28;20047;-75
2022/09/18 02:41:38;;;;;;;6.63;4.10;;;10.60;84.40;;;;;;4981700;28;20307;-76
2022/09/18 02:44:11;;;;;;;8.93;4.53;;;10.60;84.70;;;;;;4980396;28;20765;-75
2022/09/18 02:46:58;;;;;;;5.97;4.15;;;10.60;84.90;;;;;;4985274;28;20054;-75
2022/09/18 02:49:42;;;;;;;8.48;4.35;;;10.50;84.90;;;;;;4991739;28;20183;-77
2022/09/18 02:52:16;;;;;;;8.35;4.63;;;10.50;85.20;;;;;;4985622;28;20042;-76
2022/09/18 02:54:52;;;;;;;8.05;4.22;;;10.50;85.10;;;;;;4988573;28;20043;-75
2022/09/18 02:57:31;;;;;;;9.35;4.25;;;10.50;85.20;;;;;;4986668;28;20081;-75
2022/09/18 02:59:59;;;;;;;8.95;4.65;;;10.40;85.20;;;;;;4989207;28;20031;-75
2022/09/18 03:02:25;;;;;;;7.38;4.22;;;10.50;85.10;;;;;;4988990;28;20042;-77
2022/09/18 03:04:51;;;;;;;8.07;4.63;;;10.50;85.10;;;;;;4995913;28;20077;-75
2022/09/18 03:07:17;;;;;;;8.20;4.30;;;10.50;85.00;;;;;;4989829;28;20050;-75
2022/09/18 03:09:43;;;;;;;9.80;4.45;;;10.50;84.80;;;;;;4989880;28;21080;-76
2022/09/18 03:12:09;;;;;;;8.18;4.50;;;10.40;84.80;;;;;;4987030;28;20026;-75
2022/09/18 20:14:06;;;;;;;11.65;2.17;;;12.70;85.20;;;;;;4867788;29;20381;-86
2022/09/18 20:16:31;;;;;;;12.60;2.45;;;12.70;85.00;;;;;;4905613;29;20044;-87
2022/09/18 20:18:57;;;;;;;8.30;2.20;;;12.70;85.10;;;;;;4906122;29;20439;-86
2022/09/18 20:21:23;;;;;;;9.18;2.17;;;12.70;84.90;;;;;;4888011;29;20475;-88
2022/09/18 20:23:48;;;;;;;9.73;2.05;;;12.70;85.00;;;;;;4889164;29;20056;-87
2022/09/18 20:26:18;;;;;;;9.18;2.05;;;12.70;84.80;;;;;;4889569;29;20059;-89
2022/09/18 20:28:44;;;;;;;7.45;2.05;;;12.70;84.70;;;;;;4893352;29;20096;-88
2022/09/18 20:31:12;;;;;;;8.85;2.08;;;12.70;84.50;;;;;;4889795;29;20056;-88
2022/09/18 20:33:38;;;;;;;12.48;2.47;;;12.80;84.60;;;;;;4906111;29;20068;-87
2022/09/18 20:36:06;;;;;;;9.35;2.40;;;12.80;84.50;;;;;;4894728;29;20647;-87
2022/09/18 20:38:34;;;;;;;11.85;2.15;;;12.80;84.60;;;;;;4908364;29;20491;-88
2022/09/18 20:41:03;;;;;;;9.73;1.92;;;12.70;84.80;;;;;;4898568;29;20135;-88
2022/09/18 20:43:29;;;;;;;9.18;1.60;;;12.70;84.80;;;;;;4912927;29;20059;-87
2022/09/18 20:46:04;;;;;;;11.85;2.58;;;12.70;84.70;;;;;;4904904;29;20060;-88
2022/09/18 20:48:34;;;;;;;8.93;1.95;;;12.70;84.70;;;;;;4901536;29;20052;-87
2022/09/18 20:51:06;;;;;;;7.53;2.05;;;12.70;84.80;;;;;;4893685;29;20032;-87
2022/09/18 20:53:33;;;;;;;8.73;1.80;;;12.70;84.90;;;;;;4903870;29;20515;-88
2022/09/18 20:55:59;;;;;;;7.65;1.85;;;12.80;84.90;;;;;;4890262;29;20042;-87
2022/09/18 20:58:25;;;;;;;8.88;1.90;;;12.70;85.00;;;;;;4903052;29;20068;-88
2022/09/18 21:00:52;;;;;;;11.20;2.45;;;12.70;85.10;;;;;;4894731;29;20067;-88
2022/09/18 21:03:19;;;;;;;10.57;1.95;;;12.80;85.20;;;;;;4892929;29;20453;-88
2022/09/18 21:05:45;;;;;;;8.95;1.80;;;12.70;85.20;;;;;;4893996;29;20040;-88
2022/09/18 21:08:11;;;;;;;9.30;2.83;;;12.70;85.10;;;;;;4893455;29;20070;-87
2022/09/18 21:10:45;;;;;;;12.38;2.25;;;12.80;85.10;;;;;;4893035;29;20496;-88
2022/09/18 21:13:15;;;;;;;11.90;2.63;;;12.70;85.20;;;;;;4904993;29;20044;-88
2022/09/18 21:15:47;;;;;;;10.00;2.35;;;12.70;85.40;;;;;;4910623;29;20040;-88
2022/09/18 21:18:14;;;;;;;8.70;2.05;;;12.70;85.50;;;;;;4910313;29;20040;-88
2022/09/18 21:20:42;;;;;;;6.88;2.10;;;12.70;85.60;;;;;;4909794;29;20098;-88
2022/09/18 21:25:54;;;;;;;11.05;2.58;;;12.60;85.60;;;;;;4909164;29;20131;-88
2022/09/18 21:28:20;;;;;;;12.45;2.97;;;12.60;85.70;;;;;;4909317;29;20387;-90
2022/09/18 21:30:45;;;;;;;9.52;2.35;;;12.60;85.80;;;;;;4909914;29;20036;-90
2022/09/18 21:33:14;;;;;;;9.65;2.53;;;12.60;85.90;;;;;;4907086;29;20124;-90
2022/09/18 21:35:48;;;;;;;9.25;2.58;;;12.60;86.10;;;;;;4925471;29;20127;-91
2022/09/18 21:38:16;;;;;;;10.82;2.63;;;12.50;86.30;;;;;;4924538;29;20084;-90
2022/09/18 21:40:44;;;;;;;9.35;2.00;;;12.50;86.40;;;;;;4909092;29;20040;-90
2022/09/18 21:43:10;;;;;;;7.47;2.50;;;12.50;86.50;;;;;;4915068;29;20040;-90
2022/09/18 21:45:36;;;;;;;11.60;2.38;;;12.50;86.70;;;;;;4921192;29;20036;-90
2022/09/18 21:48:01;;;;;;;9.68;2.83;;;12.40;86.80;;;;;;4909680;29;20483;-90
2022/09/18 21:50:28;;;;;;;10.00;3.10;;;12.40;87.00;;;;;;4909840;29;21599;-90
2022/09/18 21:52:54;;;;;;;7.75;2.50;;;12.40;87.30;;;;;;4904438;29;20045;-90
2022/09/18 21:55:20;;;;;;;8.82;2.33;;;12.30;87.40;;;;;;4904787;29;20503;-87
2022/09/18 21:57:46;;;;;;;9.10;2.60;;;12.30;87.60;;;;;;4920433;29;20032;-91
2022/09/18 22:00:12;;;;;;;10.30;3.38;;;12.20;87.60;;;;;;4910661;28;20035;-88
2022/09/18 22:02:39;;;;;;;10.02;2.50;;;12.10;87.80;;;;;;4904829;29;20055;-90
2022/09/18 22:05:07;;;;;;;7.35;2.15;;;12.20;87.90;;;;;;4905441;29;20032;-90
2022/09/18 22:07:33;;;;;;;11.52;2.22;;;12.20;87.90;;;;;;4905573;29;20049;-90
2022/09/18 22:09:59;;;;;;;12.80;3.00;;;12.10;87.90;;;;;;4905631;29;20518;-91
2022/09/18 22:12:25;;;;;;;13.52;2.83;;;12.20;87.90;;;;;;4906840;29;20068;-90
2022/09/18 22:14:51;;;;;;;11.00;2.78;;;12.20;87.80;;;;;;4905736;29;20047;-91
2022/09/18 22:17:17;;;;;;;14.95;3.08;;;12.30;87.70;;;;;;4908100;29;20036;-88
2022/09/18 22:19:42;;;;;;;10.27;2.60;;;12.30;87.70;;;;;;4905690;29;20537;-91
2022/09/18 22:22:10;;;;;;;11.02;3.28;;;12.30;87.60;;;;;;4919563;29;20024;-90
2022/09/18 22:24:35;;;;;;;10.90;2.83;;;12.30;87.40;;;;;;4923113;29;20139;-90
2022/09/18 22:27:07;;;;;;;10.23;2.60;;;12.40;87.20;;;;;;4905776;29;21148;-90
2022/09/18 22:29:33;;;;;;;9.82;2.58;;;12.40;87.20;;;;;;4898943;29;20119;-90
2022/09/18 22:32:00;;;;;;;11.00;2.85;;;12.40;87.20;;;;;;4903916;29;20440;-90
2022/09/18 22:34:27;;;;;;;10.52;2.78;;;12.30;87.10;;;;;;4903798;29;20036;-90
2022/09/18 22:36:54;;;;;;;10.60;2.78;;;12.30;87.10;;;;;;4902047;29;20127;-90
2022/09/18 22:39:21;;;;;;;9.57;2.85;;;12.40;87.20;;;;;;4909395;28;20866;-91
2022/09/18 22:41:48;;;;;;;10.93;2.60;;;12.30;87.00;;;;;;4901823;29;20037;-90
2022/09/18 22:44:14;;;;;;;9.40;2.60;;;12.20;87.00;;;;;;4906366;29;20713;-91
2022/09/18 22:46:43;;;;;;;13.50;2.55;;;12.20;87.00;;;;;;4911105;29;20083;-91
2022/09/18 22:49:12;;;;;;;12.15;2.50;;;12.10;86.80;;;;;;4925961;29;20075;-90
2022/09/18 22:51:39;;;;;;;8.07;2.15;;;12.10;86.90;;;;;;4906085;29;20036;-89
2022/09/18 22:54:08;;;;;;;9.13;2.13;;;12.10;87.00;;;;;;4903830;29;20040;-90
2022/09/18 22:56:43;;;;;;;8.35;2.08;;;12.00;87.10;;;;;;4904711;29;20566;-90
2022/09/18 22:59:15;;;;;;;8.60;2.05;;;11.90;87.20;;;;;;4918541;29;20044;-90
2022/09/18 23:01:47;;;;;;;7.85;2.15;;;11.90;87.20;;;;;;4906022;29;20043;-89
2022/09/18 23:04:16;;;;;;;8.25;2.05;;;11.80;87.30;;;;;;4924585;28;20724;-90
2022/09/18 23:06:42;;;;;;;9.57;2.67;;;11.70;87.40;;;;;;4909933;29;20036;-90
2022/09/18 23:09:09;;;;;;;11.30;2.78;;;11.70;87.60;;;;;;4925766;28;20032;-90
2022/09/18 23:11:35;;;;;;;10.15;2.35;;;11.60;87.70;;;;;;4925197;29;20159;-90
2022/09/18 23:14:04;;;;;;;9.70;2.30;;;11.70;87.80;;;;;;4909835;29;20119;-90
2022/09/18 23:16:31;;;;;;;9.15;2.90;;;11.70;87.90;;;;;;4924355;29;20901;-90
2022/09/18 23:19:02;;;;;;;9.82;2.15;;;11.70;87.60;;;;;;4907688;29;20048;-89
2022/09/18 23:21:30;;;;;;;8.73;2.20;;;11.70;87.50;;;;;;4921106;29;20045;-90
2022/09/18 23:23:57;;;;;;;8.98;2.20;;;11.70;87.50;;;;;;4915750;29;20127;-90
2022/09/18 23:26:26;;;;;;;7.43;2.38;;;11.70;87.60;;;;;;4923775;29;20131;-91
2022/09/18 23:28:54;;;;;;;10.90;2.20;;;11.70;87.70;;;;;;4923366;29;20040;-90
2022/09/18 23:31:29;;;;;;;7.05;2.10;;;11.70;87.70;;;;;;4908501;29;20068;-90
2022/09/18 23:34:00;;;;;;;11.15;2.85;;;11.80;87.90;;;;;;4905108;29;20472;-88
2022/09/18 23:36:32;;;;;;;9.98;2.05;;;11.70;88.10;;;;;;4917782;29;20103;-88
2022/09/18 23:39:00;;;;;;;13.25;2.42;;;11.80;88.00;;;;;;4907270;29;20505;-89
2022/09/18 23:41:33;;;;;;;8.05;1.83;;;11.80;87.90;;;;;;4923215;29;20044;-89
2022/09/18 23:44:01;;;;;;;6.72;1.90;;;11.80;88.00;;;;;;4921157;29;20036;-90
2022/09/18 23:46:27;;;;;;;7.68;2.10;;;11.80;88.10;;;;;;4922342;29;20091;-90
2022/09/18 23:48:55;;;;;;;6.68;1.73;;;11.80;88.10;;;;;;4906529;29;20052;-90
2022/09/18 23:51:35;;;;;;;7.18;2.35;;;11.80;88.10;;;;;;4918738;29;20036;-90
2022/09/18 23:54:02;;;;;;;10.10;2.35;;;11.80;88.20;;;;;;4906659;29;20033;-89
2022/09/18 23:56:31;;;;;;;6.80;2.30;;;11.70;88.10;;;;;;4921753;29;20661;-90
2022/09/18 23:59:00;;;;;;;8.27;2.17;;;11.80;88.10;;;;;;4908288;29;20032;-90
